createdAt,value
2022-09-06T00:01:24.792Z,101159.19
2022-09-06T00:06:26.876Z,101147.19
2022-09-06T00:11:28.963Z,101137.47
2022-09-06T00:16:30.819Z,101132.69
2022-09-06T00:21:32.637Z,101116.19
2022-09-06T00:26:34.642Z,101108.56
2022-09-06T00:31:36.674Z,101093.03
2022-09-06T00:36:38.612Z,101076.88
2022-09-06T00:41:40.996Z,101056.03
2022-09-06T00:46:46.494Z,101025.66
2022-09-06T00:51:48.311Z,101016.69
2022-09-06T00:56:50.848Z,101025.84
2022-09-06T01:01:53.345Z,101025.50
2022-09-06T01:07:23.443Z,101019.38
2022-09-06T01:12:25.274Z,100998.78
2022-09-06T01:17:42.409Z,100991.34
2022-09-06T01:23:00.475Z,100991.81
2022-09-06T01:28:28.115Z,100980.19
2022-09-06T01:33:40.925Z,100979.00
2022-09-06T01:38:43.053Z,100963.41
2022-09-06T01:43:49.378Z,100963.53
2022-09-06T01:49:30.593Z,100968.59
2022-09-06T01:55:00.230Z,100950.59
2022-09-06T02:00:12.289Z,100948.75
2022-09-06T02:05:23.108Z,100949.41
2022-09-06T02:10:32.335Z,100949.00
2022-09-06T02:15:39.425Z,100943.63
2022-09-06T02:20:45.600Z,100933.69
2022-09-06T02:25:53.953Z,100932.72
2022-09-06T02:31:03.169Z,100928.78
2022-09-06T02:36:08.653Z,100923.31
2022-09-06T02:41:10.988Z,100927.97
2022-09-06T02:46:12.977Z,100926.72
2022-09-06T02:51:15.238Z,100932.97
2022-09-06T02:56:17.331Z,100922.19
2022-09-06T03:01:19.313Z,100907.78
2022-09-06T03:06:21.333Z,100905.06
2022-09-06T03:11:23.142Z,100907.53
2022-09-06T03:16:25.272Z,100913.38
2022-09-06T03:21:27.411Z,100906.94
2022-09-06T03:26:30.760Z,100905.56
2022-09-06T03:31:32.812Z,100906.28
2022-09-06T03:36:34.694Z,100909.59
2022-09-06T03:41:36.503Z,100900.19
2022-09-06T03:46:38.573Z,100905.69
2022-09-06T03:51:40.645Z,100909.59
2022-09-06T03:56:42.631Z,100910.16
2022-09-06T04:01:45.045Z,100906.91
2022-09-06T04:06:46.931Z,100906.09
2022-09-06T04:11:48.937Z,100912.13
2022-09-06T04:16:51.039Z,100916.06
2022-09-06T04:21:53.050Z,100916.22
2022-09-06T04:26:55.011Z,100919.38
2022-09-06T04:31:57.058Z,100923.63
2022-09-06T04:36:59.067Z,100924.69
2022-09-06T04:42:01.025Z,100917.59
2022-09-06T04:47:15.211Z,100922.66
2022-09-06T04:52:17.417Z,100918.84
2022-09-06T04:57:19.424Z,100911.72
2022-09-06T05:02:21.385Z,100909.19
2022-09-06T05:07:23.473Z,100909.56
2022-09-06T05:12:25.351Z,100909.41
2022-09-06T05:17:27.319Z,100906.41
2022-09-06T05:22:29.660Z,100901.00
2022-09-06T05:27:31.746Z,100898.81
2022-09-06T05:32:35.953Z,100907.59
2022-09-06T05:37:37.761Z,100905.28
2022-09-06T05:42:41.343Z,100914.25
2022-09-06T05:47:43.591Z,100908.69
2022-09-06T05:52:45.356Z,100899.78
2022-09-06T05:57:47.182Z,100899.66
2022-09-06T06:02:50.223Z,100902.75
2022-09-06T06:07:52.463Z,100898.31
2022-09-06T06:12:54.310Z,100901.34
2022-09-06T06:17:56.264Z,100906.59
2022-09-06T06:22:58.766Z,100910.88
2022-09-06T06:28:00.880Z,100912.59
2022-09-06T06:33:02.937Z,100909.31
2022-09-06T06:38:05.153Z,100906.72
2022-09-06T06:43:07.010Z,100898.53
2022-09-06T06:48:08.780Z,100908.38
2022-09-06T06:53:10.698Z,100896.38
2022-09-06T06:58:12.545Z,100900.38
2022-09-06T07:03:14.455Z,100902.81
2022-09-06T07:08:17.025Z,100902.81
2022-09-06T07:13:19.274Z,100903.41
2022-09-06T07:18:21.235Z,100887.13
2022-09-06T07:28:48.233Z,100890.25
2022-09-06T07:33:55.122Z,100879.75
2022-09-06T07:38:57.825Z,100887.84
2022-09-06T07:43:59.949Z,100888.56
2022-09-06T07:49:04.910Z,100884.75
2022-09-06T07:59:29.844Z,100879.47
2022-09-06T08:04:31.540Z,100885.00
2022-09-06T08:09:33.316Z,100879.34
2022-09-06T08:14:35.542Z,100874.56
2022-09-06T08:19:37.560Z,100875.81
2022-09-06T08:24:39.398Z,100881.78
2022-09-06T08:29:41.205Z,100879.16
2022-09-06T08:34:43.040Z,100874.16
2022-09-06T08:39:45.129Z,100874.88
2022-09-06T08:50:14.278Z,100877.50
2022-09-06T08:55:38.002Z,100878.97
2022-09-06T09:00:42.367Z,100879.06
2022-09-06T09:05:49.120Z,100877.25
2022-09-06T09:10:58.248Z,100886.97
2022-09-06T09:16:00.340Z,100882.69
2022-09-06T09:21:02.985Z,100873.97
2022-09-06T09:26:15.233Z,100869.22
2022-09-06T09:31:34.164Z,100865.94
2022-09-06T09:36:36.554Z,100879.59
2022-09-06T09:41:43.811Z,100889.94
2022-09-06T09:46:45.609Z,100889.94
2022-09-06T09:52:07.385Z,100887.22
2022-09-06T09:57:18.073Z,100879.16
2022-09-06T10:02:35.914Z,100877.69
2022-09-06T10:07:56.158Z,100875.41
2022-09-06T10:13:08.484Z,100866.09
2022-09-06T10:18:34.124Z,100868.38
2022-09-06T10:29:33.650Z,100882.56
2022-09-06T10:35:06.490Z,100886.91
2022-09-06T10:40:11.322Z,100866.28
2022-09-06T10:45:32.006Z,100859.88
2022-09-06T10:51:05.196Z,100860.72
2022-09-06T10:56:11.649Z,100850.53
2022-09-06T11:01:31.435Z,100855.69
2022-09-06T11:06:36.898Z,100861.97
2022-09-06T11:12:10.714Z,100866.72
2022-09-06T11:17:23.281Z,100866.72
2022-09-06T11:22:43.770Z,100863.78
2022-09-06T11:27:52.332Z,100865.75
2022-09-06T11:33:24.881Z,100873.47
2022-09-06T11:38:27.716Z,100865.75
2022-09-06T11:43:48.137Z,100872.09
2022-09-06T11:49:02.966Z,100871.13
2022-09-06T11:54:10.682Z,100875.44
2022-09-06T11:59:24.214Z,100865.94
2022-09-06T12:05:01.295Z,100873.22
2022-09-06T12:10:31.755Z,100861.09
2022-09-06T12:15:51.857Z,100854.97
2022-09-06T12:20:54.524Z,100854.72
2022-09-06T12:25:56.946Z,100844.66
2022-09-06T12:30:59.663Z,100830.06
2022-09-06T12:36:30.447Z,100838.53
2022-09-06T12:41:42.950Z,100838.13
2022-09-06T12:46:50.278Z,100837.00
2022-09-06T12:52:07.672Z,100842.69
2022-09-06T12:57:21.795Z,100830.78
2022-09-06T13:02:43.005Z,100824.66
2022-09-06T13:07:51.304Z,100806.38
2022-09-06T13:12:54.594Z,100805.78
2022-09-06T13:18:22.432Z,100791.38
2022-09-06T13:23:24.300Z,100783.16
2022-09-06T13:28:32.067Z,100784.81
2022-09-06T13:33:35.339Z,100778.88
2022-09-06T13:38:45.136Z,100769.41
2022-09-06T13:43:48.786Z,100770.13
2022-09-06T13:48:54.257Z,100761.63
2022-09-06T13:54:10.851Z,100752.25
2022-09-06T13:59:12.996Z,100752.41
2022-09-06T14:04:19.870Z,100739.06
2022-09-06T14:09:21.827Z,100740.06
2022-09-06T14:14:24.725Z,100742.31
2022-09-06T14:19:27.005Z,100734.53
2022-09-06T14:24:29.234Z,100732.97
2022-09-06T14:29:31.782Z,100739.91
2022-09-06T14:34:33.669Z,100732.94
2022-09-06T14:39:35.613Z,100729.56
2022-09-06T14:44:37.475Z,100736.81
2022-09-06T14:49:39.247Z,100732.66
2022-09-06T14:54:41.205Z,100731.06
2022-09-06T14:59:43.121Z,100730.53
2022-09-06T15:04:46.066Z,100736.34
2022-09-06T15:09:47.924Z,100731.53
2022-09-06T15:14:50.019Z,100724.03
2022-09-06T15:19:52.284Z,100713.94
2022-09-06T15:24:54.384Z,100706.41
2022-09-06T15:29:56.257Z,100708.69
2022-09-06T15:35:04.307Z,100700.34
2022-09-06T15:40:07.192Z,100691.94
2022-09-06T15:45:10.019Z,100681.44
2022-09-06T15:50:12.036Z,100681.31
2022-09-06T15:55:32.310Z,100665.97
2022-09-06T16:00:34.198Z,100667.53
2022-09-06T16:10:58.459Z,100649.91
2022-09-06T16:16:01.956Z,100634.44
2022-09-06T16:21:24.645Z,100632.88
2022-09-06T16:26:30.126Z,100632.63
2022-09-06T16:31:39.170Z,100619.53
2022-09-06T16:36:42.520Z,100621.09
2022-09-06T16:41:46.493Z,100618.00
2022-09-06T16:46:50.040Z,100615.88
2022-09-06T16:51:52.719Z,100620.13
2022-09-06T16:56:55.358Z,100620.84
2022-09-06T17:01:57.412Z,100633.19
2022-09-06T17:06:59.385Z,100641.56
2022-09-06T17:12:01.300Z,100635.03
2022-09-06T17:17:05.967Z,100640.28
2022-09-06T17:22:10.437Z,100630.19
2022-09-06T17:27:12.581Z,100629.78
2022-09-06T17:32:14.493Z,100630.06
2022-09-06T17:37:16.642Z,100614.03
2022-09-06T17:42:18.484Z,100619.28
2022-09-06T17:47:20.615Z,100616.28
2022-09-06T17:52:22.735Z,100611.88
2022-09-06T17:57:25.320Z,100608.91
2022-09-06T18:02:27.307Z,100613.03
2022-09-06T18:07:29.591Z,100605.78
2022-09-06T18:12:31.793Z,100590.16
2022-09-06T18:17:34.057Z,100606.50
2022-09-06T18:22:38.472Z,100604.66
2022-09-06T18:27:40.720Z,100597.84
2022-09-06T18:32:43.783Z,100600.53
2022-09-06T18:37:46.063Z,100613.88
2022-09-06T18:42:48.071Z,100600.66
2022-09-06T18:47:49.960Z,100599.38
2022-09-06T18:52:51.797Z,100584.06
2022-09-06T18:57:54.989Z,100588.47
2022-09-06T19:02:56.870Z,100588.34
2022-09-06T19:07:58.774Z,100597.56
2022-09-06T19:13:00.670Z,100593.31
2022-09-06T19:18:03.415Z,100592.16
2022-09-06T19:23:05.256Z,100584.19
2022-09-06T19:28:07.206Z,100572.31
2022-09-06T19:33:09.181Z,100562.91
2022-09-06T19:38:11.086Z,100563.34
2022-09-06T19:43:13.186Z,100545.19
2022-09-06T19:48:15.075Z,100537.22
2022-09-06T19:53:16.980Z,100528.84
2022-09-06T19:58:19.827Z,100542.06
2022-09-06T20:03:22.047Z,100528.72
2022-09-06T20:08:23.962Z,100528.00
2022-09-06T20:13:27.276Z,100541.22
2022-09-06T20:18:29.208Z,100537.09
2022-09-06T20:23:34.204Z,100526.31
2022-09-06T20:28:36.374Z,100513.38
2022-09-06T20:33:39.759Z,100499.38
2022-09-06T20:38:42.994Z,100488.41
2022-09-06T20:43:45.370Z,100479.47
2022-09-06T20:48:47.815Z,100464.44
2022-09-06T20:54:00.723Z,100481.19
2022-09-06T20:59:05.744Z,100529.72
2022-09-06T21:04:09.876Z,100557.22
2022-09-06T21:09:13.926Z,100548.16
2022-09-06T21:14:15.986Z,100537.66
2022-09-06T21:19:18.057Z,100512.28
2022-09-06T21:24:20.010Z,100491.94
2022-09-06T21:29:22.047Z,100462.88
2022-09-06T21:34:23.969Z,100439.31
2022-09-06T21:39:26.131Z,100459.06
2022-09-06T21:44:27.996Z,100475.63
2022-09-06T21:49:29.729Z,100459.31
2022-09-06T21:54:31.654Z,100462.88
2022-09-06T21:59:33.833Z,100495.38
2022-09-06T22:04:36.061Z,100502.06
2022-09-06T22:09:37.950Z,100496.81
2022-09-06T22:14:39.950Z,100503.75
2022-09-06T22:19:41.924Z,100541.22
2022-09-06T22:24:44.200Z,100703.13
2022-09-06T22:29:46.485Z,100745.03
2022-09-06T22:34:48.487Z,100801.19
2022-09-06T22:39:51.072Z,100791.53
2022-09-06T22:44:54.379Z,100767.00
2022-09-06T22:49:56.744Z,100732.94
2022-09-06T22:54:58.617Z,100716.75
2022-09-06T23:00:03.011Z,100707.94
2022-09-06T23:05:05.219Z,100695.19
2022-09-06T23:10:07.242Z,100702.13
2022-09-06T23:15:09.681Z,100697.47
2022-09-06T23:20:11.581Z,100717.03
2022-09-06T23:25:13.488Z,100740.31
2022-09-06T23:30:15.606Z,100710.66
2022-09-06T23:35:17.649Z,100689.19
2022-09-06T23:40:20.018Z,100683.09
2022-09-06T23:45:21.945Z,100663.38
2022-09-06T23:50:23.777Z,100651.88
2022-09-06T23:55:25.658Z,100642.38
